Time;durP1;ratioP1;P1;durP2;ratioP2;P2;SDS_P1;SDS_P2;PMS_P1;PMS_P2;Temp;Humidity;BMP_temperature;BMP_pressure;BME280_temperature;BME280_humidity;BME280_pressure;Samples;Min_cycle;Max_cycle;Signal;HPM_P1;HPM_P2
2021/12/18 00:01:32;;;;;;;0.20;0.20;;;3.70;99.90;;;;;;4975851;28;20054;-68
2021/12/18 00:03:59;;;;;;;0.75;0.75;;;3.60;99.90;;;;;;4975483;28;20117;-68
2021/12/18 00:06:27;;;;;;;0.85;0.85;;;3.60;99.90;;;;;;4975724;28;20027;-67
2021/12/18 00:08:55;;;;;;;1.10;1.00;;;3.40;99.90;;;;;;4975537;28;20042;-68
2021/12/18 00:11:22;;;;;;;0.10;0.10;;;3.60;99.90;;;;;;4975444;28;20038;-67
2021/12/18 00:13:49;;;;;;;0.10;0.10;;;3.50;99.90;;;;;;4975758;28;20023;-68
2021/12/18 00:16:15;;;;;;;2.33;1.60;;;3.50;99.90;;;;;;4975614;28;20395;-67
2021/12/18 00:18:42;;;;;;;0.00;0.00;;;3.40;99.90;;;;;;4975365;28;20023;-68
2021/12/18 00:21:09;;;;;;;0.10;0.10;;;3.40;99.90;;;;;;4975232;28;20050;-68
2021/12/18 00:23:35;;;;;;;6.55;2.22;;;3.30;99.90;;;;;;4975170;28;20039;-67
2021/12/18 00:26:01;;;;;;;0.68;0.68;;;3.30;99.90;;;;;;4975363;28;20031;-67
2021/12/18 00:28:27;;;;;;;0.20;0.20;;;3.30;99.90;;;;;;4973865;28;20392;-67
2021/12/18 00:30:53;;;;;;;0.10;0.10;;;3.30;99.90;;;;;;4975436;28;20039;-67
2021/12/18 00:33:18;;;;;;;0.35;0.35;;;3.10;99.90;;;;;;4975075;28;20035;-67
2021/12/18 00:35:44;;;;;;;0.50;0.50;;;3.20;99.90;;;;;;4975025;28;20404;-68
2021/12/18 00:38:10;;;;;;;0.13;0.13;;;3.20;99.90;;;;;;4975052;28;20114;-67
2021/12/18 00:41:10;;;;;;;0.13;0.13;;;3.20;99.90;;;;;;4989979;28;20031;-68
2021/12/18 00:43:41;;;;;;;1.00;1.00;;;3.20;99.90;;;;;;4974692;28;20793;-66
2021/12/18 00:46:07;;;;;;;0.35;0.35;;;3.10;99.90;;;;;;4971531;28;20043;-67
2021/12/18 00:48:33;;;;;;;0.30;0.30;;;3.20;99.90;;;;;;4975236;28;20069;-67
2021/12/18 00:50:59;;;;;;;1.02;0.95;;;3.30;99.90;;;;;;4974863;28;20043;-66
2021/12/18 00:53:24;;;;;;;0.15;0.15;;;3.40;99.90;;;;;;4974899;28;20173;-67
2021/12/18 00:55:52;;;;;;;0.13;0.13;;;3.40;99.90;;;;;;4974800;28;20035;-67
2021/12/18 00:58:18;;;;;;;0.82;0.82;;;3.50;99.90;;;;;;4974855;28;20031;-67
2021/12/18 01:00:46;;;;;;;1.17;1.17;;;3.50;99.90;;;;;;4974934;28;20090;-67
2021/12/18 01:03:18;;;;;;;0.35;0.35;;;3.50;99.90;;;;;;4973818;28;20517;-67
2021/12/18 01:05:46;;;;;;;0.10;0.10;;;3.50;99.90;;;;;;4989740;28;20089;-67
2021/12/18 01:08:12;;;;;;;0.22;0.22;;;3.30;99.90;;;;;;4973643;28;20146;-67
2021/12/18 01:13:07;;;;;;;0.17;0.17;;;3.20;99.90;;;;;;4973303;28;20106;-67
2021/12/18 01:15:38;;;;;;;0.68;0.68;;;3.20;99.90;;;;;;4957469;28;20038;-67
2021/12/18 01:23:35;;;;;;;2.30;2.00;;;3.10;99.90;;;;;;4972608;28;20495;-67
2021/12/18 01:26:03;;;;;;;1.63;1.52;;;3.10;99.90;;;;;;4973025;28;20109;-67
2021/12/18 01:28:30;;;;;;;0.40;0.40;;;3.10;99.90;;;;;;4974441;28;20038;-67
2021/12/18 01:30:56;;;;;;;0.70;0.70;;;3.10;99.90;;;;;;4972968;28;20039;-67
2021/12/18 01:33:22;;;;;;;0.10;0.10;;;3.10;99.90;;;;;;4974275;28;20035;-67
2021/12/18 01:35:49;;;;;;;0.75;0.75;;;3.00;99.90;;;;;;4989080;28;20034;-67
2021/12/18 01:38:15;;;;;;;0.30;0.30;;;3.00;99.90;;;;;;4972507;28;20026;-67
2021/12/18 01:40:42;;;;;;;0.75;0.75;;;3.10;99.90;;;;;;4972605;28;20035;-67
2021/12/18 01:53:57;;;;;;;0.17;0.17;;;3.00;99.90;;;;;;4987680;28;20054;-67
2021/12/18 01:56:25;;;;;;;0.43;0.43;;;3.10;99.90;;;;;;4973911;28;20031;-67
2021/12/18 01:58:52;;;;;;;0.90;0.88;;;3.30;99.90;;;;;;4972483;28;20035;-67
2021/12/18 02:01:19;;;;;;;0.20;0.20;;;3.30;99.90;;;;;;4972893;28;20038;-67
2021/12/18 02:03:47;;;;;;;1.08;1.08;;;3.00;99.90;;;;;;4973723;28;20031;-67
2021/12/18 02:06:14;;;;;;;0.10;0.10;;;3.10;99.90;;;;;;4973438;28;20058;-67
2021/12/18 02:08:43;;;;;;;0.57;0.57;;;3.30;99.90;;;;;;4973307;28;20050;-67
2021/12/18 02:11:14;;;;;;;0.93;0.90;;;3.20;99.90;;;;;;4972195;28;20031;-67
2021/12/18 02:21:41;;;;;;;1.08;1.08;;;3.30;99.90;;;;;;4973225;28;20465;-67
2021/12/18 02:24:08;;;;;;;0.28;0.28;;;3.40;99.90;;;;;;4973285;28;20027;-67
2021/12/18 02:26:34;;;;;;;1.90;1.00;;;3.50;99.90;;;;;;4971991;28;20178;-67
2021/12/18 02:29:03;;;;;;;0.10;0.10;;;3.50;99.90;;;;;;4972229;28;20042;-67
2021/12/18 02:31:29;;;;;;;0.85;0.85;;;3.40;99.90;;;;;;4972092;28;20046;-67
2021/12/18 02:33:56;;;;;;;0.20;0.20;;;3.50;99.90;;;;;;4973237;28;20026;-67
2021/12/18 02:36:24;;;;;;;1.65;1.45;;;3.40;99.90;;;;;;4972028;28;20086;-67
2021/12/18 02:39:05;;;;;;;0.52;0.38;;;3.50;99.90;;;;;;4972055;28;20027;-67
2021/12/18 02:41:40;;;;;;;2.10;1.95;;;3.60;99.90;;;;;;4972325;28;20042;-67
2021/12/18 02:44:10;;;;;;;0.10;0.10;;;3.60;99.90;;;;;;4956983;28;20035;-67
2021/12/18 02:46:38;;;;;;;1.43;1.33;;;3.50;99.90;;;;;;4972907;28;20058;-67
2021/12/18 02:49:13;;;;;;;1.35;1.17;;;3.40;99.90;;;;;;4973080;28;20039;-67
2021/12/18 02:51:40;;;;;;;0.47;0.47;;;3.30;99.90;;;;;;4971640;28;20034;-68
2021/12/18 02:54:06;;;;;;;0.70;0.70;;;3.40;99.90;;;;;;4972831;28;20046;-67
2021/12/18 02:56:32;;;;;;;0.10;0.10;;;3.40;99.90;;;;;;4971766;28;20039;-67
2021/12/18 02:59:07;;;;;;;2.35;2.08;;;3.50;99.90;;;;;;4955678;28;20031;-67
2021/12/18 03:01:37;;;;;;;0.35;0.32;;;3.40;99.90;;;;;;4971622;28;20115;-67
2021/12/18 03:04:14;;;;;;;0.13;0.13;;;3.30;99.90;;;;;;4956074;28;20055;-67
2021/12/18 03:06:44;;;;;;;0.40;0.40;;;3.30;99.90;;;;;;4971742;28;20042;-67
2021/12/18 03:09:46;;;;;;;0.10;0.10;;;3.40;99.90;;;;;;4972798;28;20125;-67
2021/12/18 03:25:57;;;;;;;0.50;0.50;;;3.90;99.90;;;;;;4973961;28;20551;-67
2021/12/18 03:28:23;;;;;;;0.80;0.80;;;3.90;99.90;;;;;;4974131;28;20035;-67
2021/12/18 03:30:49;;;;;;;0.00;0.00;;;4.00;99.90;;;;;;4974823;28;20127;-68
2021/12/18 03:33:15;;;;;;;1.23;1.13;;;3.90;99.90;;;;;;4976073;28;20114;-67
2021/12/18 03:35:41;;;;;;;1.00;1.00;;;3.90;99.90;;;;;;4975235;28;20039;-67
2021/12/18 03:38:09;;;;;;;1.90;1.08;;;4.00;99.90;;;;;;4975277;28;20022;-68
2021/12/18 03:40:39;;;;;;;0.20;0.20;;;4.00;99.90;;;;;;4974821;28;20047;-67
2021/12/18 03:43:05;;;;;;;4.28;2.40;;;4.10;99.90;;;;;;4974805;28;20030;-67
2021/12/18 03:45:31;;;;;;;4.43;1.30;;;4.20;99.90;;;;;;4974987;28;20173;-67
2021/12/18 03:47:56;;;;;;;0.30;0.30;;;4.20;99.90;;;;;;4974718;28;20110;-67
2021/12/18 03:50:22;;;;;;;0.10;0.10;;;4.20;99.90;;;;;;4975082;28;20071;-67
2021/12/18 03:52:49;;;;;;;0.13;0.13;;;4.20;99.90;;;;;;4976197;28;20158;-67
2021/12/18 03:55:16;;;;;;;1.25;1.15;;;4.20;99.90;;;;;;4974770;28;20133;-67
2021/12/18 03:57:42;;;;;;;2.05;1.95;;;4.30;99.90;;;;;;4958528;28;20030;-67
2021/12/18 04:00:13;;;;;;;0.10;0.10;;;4.30;99.90;;;;;;4975857;28;20507;-67
2021/12/18 04:02:40;;;;;;;0.10;0.10;;;4.20;99.90;;;;;;4973251;28;20027;-67
2021/12/18 04:05:07;;;;;;;0.13;0.13;;;4.30;99.90;;;;;;4974465;28;20093;-67
2021/12/18 04:07:40;;;;;;;0.20;0.20;;;4.30;99.90;;;;;;4974156;28;20041;-67
2021/12/18 04:10:09;;;;;;;0.57;0.57;;;4.40;99.90;;;;;;4974534;28;20132;-68
2021/12/18 04:12:36;;;;;;;0.17;0.17;;;4.40;99.90;;;;;;4974204;28;20027;-67
2021/12/18 04:15:02;;;;;;;3.75;2.72;;;4.50;99.90;;;;;;4975341;28;20058;-67
2021/12/18 04:17:28;;;;;;;0.10;0.10;;;4.40;99.90;;;;;;4974245;28;20042;-67
2021/12/18 04:19:54;;;;;;;1.73;1.13;;;4.50;99.90;;;;;;4975323;28;20494;-68
2021/12/18 04:22:19;;;;;;;0.95;0.95;;;4.50;99.90;;;;;;4975343;28;20031;-67
2021/12/18 04:24:45;;;;;;;0.47;0.47;;;4.50;99.90;;;;;;4975136;28;20143;-68
2021/12/18 04:27:11;;;;;;;0.88;0.88;;;4.50;99.90;;;;;;4975182;28;20031;-67
2021/12/18 04:29:36;;;;;;;0.10;0.10;;;4.50;99.90;;;;;;4975308;28;20105;-67
2021/12/18 04:32:02;;;;;;;0.88;0.88;;;4.50;99.90;;;;;;4975566;28;20472;-67
2021/12/18 04:34:28;;;;;;;0.32;0.32;;;4.60;99.90;;;;;;4973986;28;20089;-67
2021/12/18 04:36:54;;;;;;;0.00;0.00;;;4.40;99.90;;;;;;4975427;28;20365;-67
2021/12/18 04:39:20;;;;;;;0.65;0.65;;;4.40;99.90;;;;;;4973571;28;20031;-67
2021/12/18 04:41:51;;;;;;;0.43;0.43;;;4.40;99.90;;;;;;4974847;28;20114;-67
2021/12/18 04:44:17;;;;;;;1.25;1.17;;;4.40;99.90;;;;;;4973822;28;20023;-67
2021/12/18 04:46:44;;;;;;;0.80;0.80;;;4.30;99.90;;;;;;4973463;28;20504;-67
2021/12/18 04:49:10;;;;;;;0.10;0.10;;;4.40;99.90;;;;;;4973817;28;20114;-67
2021/12/18 04:51:36;;;;;;;1.38;1.30;;;4.50;99.90;;;;;;4974724;28;20034;-67
2021/12/18 04:54:02;;;;;;;0.10;0.10;;;4.40;99.90;;;;;;4975001;28;20030;-67
2021/12/18 04:56:28;;;;;;;2.55;2.20;;;4.40;99.90;;;;;;4974767;28;20105;-67
2021/12/18 04:58:56;;;;;;;4.45;1.08;;;4.40;99.90;;;;;;4974387;28;20062;-67
2021/12/18 05:01:22;;;;;;;0.20;0.20;;;4.50;99.90;;;;;;4974631;28;20034;-67
2021/12/18 05:03:49;;;;;;;1.63;0.93;;;4.50;99.90;;;;;;4974440;28;20042;-67
2021/12/18 05:06:15;;;;;;;0.32;0.32;;;4.50;99.90;;;;;;4957347;28;20042;-67
2021/12/18 05:08:44;;;;;;;0.32;0.32;;;4.50;99.90;;;;;;4974704;28;20484;-67
2021/12/18 05:11:10;;;;;;;0.30;0.30;;;4.50;99.90;;;;;;4974289;28;20129;-67
2021/12/18 05:13:36;;;;;;;0.65;0.65;;;4.50;99.90;;;;;;4974372;28;20098;-68
2021/12/18 05:16:02;;;;;;;3.50;1.30;;;4.60;99.90;;;;;;4974323;28;20058;-68
2021/12/18 05:18:27;;;;;;;0.20;0.20;;;4.60;99.90;;;;;;4973118;28;20035;-67
2021/12/18 05:20:53;;;;;;;3.17;1.45;;;4.50;99.90;;;;;;4974356;28;20054;-66
2021/12/18 05:23:19;;;;;;;2.15;1.75;;;4.40;99.90;;;;;;4973023;28;20057;-67
2021/12/18 05:25:45;;;;;;;0.10;0.10;;;4.40;99.90;;;;;;4972776;28;20041;-67
2021/12/18 05:28:11;;;;;;;0.10;0.10;;;4.50;99.90;;;;;;4974091;28;20034;-66
2021/12/18 05:30:37;;;;;;;0.73;0.73;;;4.40;99.90;;;;;;4973510;28;20026;-66
2021/12/18 05:33:02;;;;;;;0.20;0.20;;;4.50;99.90;;;;;;4973868;28;20027;-66
2021/12/18 05:35:30;;;;;;;2.00;1.15;;;4.40;99.90;;;;;;4973997;28;20035;-67
2021/12/18 05:38:04;;;;;;;0.47;0.47;;;4.50;99.90;;;;;;4972782;28;20122;-67
2021/12/18 05:40:31;;;;;;;2.13;2.03;;;4.60;99.90;;;;;;4973973;28;20514;-67
2021/12/18 05:42:57;;;;;;;0.98;0.95;;;4.70;99.90;;;;;;4972417;28;20118;-66
2021/12/18 05:45:23;;;;;;;0.32;0.32;;;4.70;99.90;;;;;;4973666;28;20047;-66
2021/12/18 05:47:49;;;;;;;0.35;0.35;;;4.80;99.90;;;;;;4973567;28;20053;-67
2021/12/18 05:50:19;;;;;;;0.60;0.60;;;4.80;99.90;;;;;;4972906;28;20178;-66
2021/12/18 05:52:45;;;;;;;0.03;0.03;;;4.80;99.90;;;;;;4972193;28;20389;-67
2021/12/18 05:55:12;;;;;;;0.32;0.32;;;4.80;99.90;;;;;;4972488;28;20395;-66
2021/12/18 05:57:38;;;;;;;0.40;0.20;;;4.80;99.90;;;;;;4973452;28;20073;-66
2021/12/18 06:00:06;;;;;;;0.95;0.95;;;4.70;99.90;;;;;;4973999;28;20495;-66
2021/12/18 06:02:32;;;;;;;0.80;0.75;;;4.70;99.90;;;;;;4972195;28;20027;-67
2021/12/18 06:04:58;;;;;;;1.08;1.08;;;4.70;99.90;;;;;;4973279;28;20143;-66
2021/12/18 06:07:32;;;;;;;2.30;2.10;;;4.80;99.90;;;;;;4973227;28;20035;-67
2021/12/18 06:09:59;;;;;;;4.95;2.10;;;4.80;99.90;;;;;;4973386;28;20056;-67
2021/12/18 06:12:25;;;;;;;0.10;0.10;;;4.80;99.90;;;;;;4972325;28;20077;-73
2021/12/18 06:14:53;;;;;;;0.20;0.20;;;4.80;99.90;;;;;;4973108;28;20074;-65
2021/12/18 06:17:19;;;;;;;0.00;0.00;;;4.80;99.90;;;;;;4973450;28;20443;-65
2021/12/18 06:19:45;;;;;;;0.32;0.32;;;4.80;99.90;;;;;;4973445;28;20035;-64
2021/12/18 06:22:11;;;;;;;0.10;0.10;;;4.80;99.90;;;;;;4972065;28;20035;-66
2021/12/18 06:24:37;;;;;;;0.60;0.60;;;4.80;99.90;;;;;;4972192;28;20081;-65
2021/12/18 06:27:03;;;;;;;0.22;0.22;;;4.80;99.90;;;;;;4973289;28;20035;-63
2021/12/18 06:29:31;;;;;;;0.10;0.10;;;4.80;99.90;;;;;;4973337;28;20428;-63
2021/12/18 06:31:57;;;;;;;0.60;0.45;;;4.80;99.90;;;;;;4973228;28;20361;-63
2021/12/18 06:34:23;;;;;;;0.10;0.10;;;4.80;99.90;;;;;;4971764;28;20070;-63
2021/12/18 06:36:49;;;;;;;0.30;0.30;;;4.70;99.90;;;;;;4972755;28;20480;-62
2021/12/18 06:39:14;;;;;;;1.00;1.00;;;4.80;99.90;;;;;;4973221;28;20042;-66
2021/12/18 06:41:40;;;;;;;0.52;0.40;;;4.80;99.90;;;;;;4973035;28;20027;-67
2021/12/18 06:44:06;;;;;;;1.75;1.55;;;4.80;99.90;;;;;;4973067;28;20476;-63
2021/12/18 06:46:33;;;;;;;2.97;1.85;;;4.80;99.90;;;;;;4971715;28;20054;-64
2021/12/18 06:48:58;;;;;;;1.00;1.00;;;4.70;99.90;;;;;;4972670;28;20042;-64
2021/12/18 06:51:24;;;;;;;0.95;0.95;;;4.60;99.90;;;;;;4972742;28;20039;-62
2021/12/18 06:53:50;;;;;;;0.52;0.52;;;4.60;99.90;;;;;;4971274;28;20039;-62
2021/12/18 06:56:16;;;;;;;0.10;0.10;;;4.60;99.90;;;;;;4983161;28;20035;-62
2021/12/18 06:58:42;;;;;;;0.03;0.03;;;4.50;99.90;;;;;;4952573;28;20039;-62
2021/12/18 07:01:08;;;;;;;0.10;0.10;;;4.50;99.90;;;;;;4954282;28;20058;-62
2021/12/18 07:03:34;;;;;;;0.77;0.77;;;4.50;99.90;;;;;;4972130;28;20563;-62
2021/12/18 07:06:00;;;;;;;0.10;0.10;;;4.40;99.90;;;;;;4957335;28;20035;-62
2021/12/18 07:08:26;;;;;;;1.55;1.45;;;4.50;99.90;;;;;;4972089;28;20035;-62
2021/12/18 07:10:52;;;;;;;1.20;1.15;;;4.50;99.90;;;;;;4957424;28;20031;-65
2021/12/18 07:13:17;;;;;;;0.10;0.10;;;4.50;99.90;;;;;;4973614;28;20097;-66
2021/12/18 07:15:43;;;;;;;0.10;0.10;;;4.40;99.90;;;;;;4946910;28;20094;-82
2021/12/18 07:18:09;;;;;;;0.30;0.30;;;4.50;99.90;;;;;;4961797;28;20074;-69
2021/12/18 07:20:35;;;;;;;4.97;1.67;;;4.70;99.90;;;;;;4966402;28;20034;-66
2021/12/18 07:23:03;;;;;;;0.30;0.30;;;4.70;99.90;;;;;;4967601;28;20034;-67
2021/12/18 07:25:29;;;;;;;0.10;0.10;;;4.70;99.90;;;;;;4975302;28;20042;-67
2021/12/18 07:27:56;;;;;;;0.47;0.47;;;4.80;99.90;;;;;;4969889;28;20028;-65
2021/12/18 07:30:23;;;;;;;0.65;0.65;;;4.60;99.90;;;;;;4964514;28;20042;-66
2021/12/18 07:32:49;;;;;;;3.25;1.58;;;4.70;99.90;;;;;;4966260;28;20404;-61
2021/12/18 07:35:15;;;;;;;0.50;0.50;;;4.60;99.90;;;;;;4972031;28;20035;-66
2021/12/18 07:37:41;;;;;;;0.25;0.25;;;4.50;99.90;;;;;;4977615;28;20118;-65
2021/12/18 07:40:08;;;;;;;16.00;4.93;;;4.30;99.90;;;;;;4969365;28;20373;-65
2021/12/18 07:42:35;;;;;;;2.13;1.60;;;4.40;99.90;;;;;;4972721;28;20472;-65
2021/12/18 07:45:01;;;;;;;1.60;1.50;;;4.40;99.90;;;;;;4980878;28;20438;-66
2021/12/18 07:47:27;;;;;;;0.17;0.17;;;4.40;99.90;;;;;;4955032;29;20051;-65
2021/12/18 07:49:53;;;;;;;0.45;0.45;;;4.40;99.90;;;;;;4956458;28;20174;-66
2021/12/18 07:52:18;;;;;;;0.10;0.10;;;4.40;99.90;;;;;;4956740;28;20046;-64
2021/12/18 07:54:45;;;;;;;0.50;0.50;;;4.50;99.90;;;;;;4956245;28;20503;-66
2021/12/18 07:57:11;;;;;;;0.40;0.40;;;4.40;99.90;;;;;;4971169;28;20393;-64
2021/12/18 07:59:37;;;;;;;1.05;1.05;;;4.20;99.90;;;;;;4956502;28;20420;-64
2021/12/18 08:02:05;;;;;;;0.10;0.10;;;4.20;99.90;;;;;;4973808;28;20027;-71
2021/12/18 08:04:33;;;;;;;0.55;0.55;;;4.20;99.90;;;;;;4958368;28;20114;-63
2021/12/18 08:06:59;;;;;;;1.13;1.10;;;4.20;99.90;;;;;;4974151;28;20043;-67
2021/12/18 08:09:24;;;;;;;0.82;0.82;;;4.40;99.90;;;;;;4975449;28;20046;-68
2021/12/18 08:11:50;;;;;;;3.92;1.25;;;4.50;99.90;;;;;;4974118;28;20034;-68
2021/12/18 08:14:16;;;;;;;0.08;0.08;;;4.50;99.90;;;;;;4974842;28;20476;-66
2021/12/18 08:16:42;;;;;;;0.20;0.20;;;4.60;99.90;;;;;;4975144;28;20377;-66
2021/12/18 08:19:08;;;;;;;0.52;0.52;;;4.60;99.90;;;;;;4973374;28;20067;-64
2021/12/18 08:21:33;;;;;;;2.75;1.83;;;4.50;99.90;;;;;;4975114;28;20488;-69
2021/12/18 08:23:59;;;;;;;0.20;0.20;;;4.60;99.90;;;;;;4975045;28;20038;-65
2021/12/18 08:26:25;;;;;;;0.90;0.90;;;4.60;99.90;;;;;;4975124;28;20085;-68
2021/12/18 08:28:51;;;;;;;0.30;0.30;;;4.70;99.90;;;;;;4975110;28;20027;-62
2021/12/18 08:31:16;;;;;;;1.75;1.65;;;4.70;99.90;;;;;;4974864;28;20070;-68
2021/12/18 08:33:42;;;;;;;0.20;0.20;;;4.80;99.90;;;;;;4974921;28;20037;-67
2021/12/18 08:36:08;;;;;;;2.65;1.20;;;4.70;99.90;;;;;;4974917;28;20041;-66
2021/12/18 08:38:34;;;;;;;0.15;0.15;;;4.40;99.90;;;;;;4975214;28;20419;-67
2021/12/18 08:41:00;;;;;;;0.10;0.10;;;4.50;99.90;;;;;;4974696;28;20035;-67
2021/12/18 08:43:26;;;;;;;0.85;0.65;;;4.60;99.90;;;;;;4974797;28;20130;-70
2021/12/18 08:45:52;;;;;;;2.90;1.30;;;4.70;99.90;;;;;;4974562;28;20035;-69
2021/12/18 08:48:17;;;;;;;0.10;0.10;;;4.70;99.90;;;;;;4974973;28;20066;-67
2021/12/18 08:50:43;;;;;;;0.13;0.13;;;4.60;99.90;;;;;;4973413;28;20051;-69
2021/12/18 08:53:09;;;;;;;0.50;0.50;;;4.70;99.90;;;;;;4974865;28;20115;-69
2021/12/18 08:55:37;;;;;;;2.38;0.98;;;4.60;99.90;;;;;;4957351;28;20035;-68
2021/12/18 08:58:03;;;;;;;0.40;0.40;;;4.60;99.90;;;;;;4974417;28;20073;-69
2021/12/18 09:00:30;;;;;;;0.17;0.17;;;4.70;99.90;;;;;;4973248;28;20113;-69
2021/12/18 09:02:57;;;;;;;0.85;0.85;;;4.80;99.90;;;;;;4973005;28;20027;-71
2021/12/18 09:05:24;;;;;;;1.20;1.15;;;4.80;99.90;;;;;;4974235;28;20042;-71
2021/12/18 09:07:53;;;;;;;0.22;0.22;;;4.80;99.90;;;;;;4974509;28;20074;-69
2021/12/18 09:10:20;;;;;;;1.52;0.85;;;4.80;99.90;;;;;;4973515;28;20117;-71
2021/12/18 09:12:47;;;;;;;1.55;1.45;;;5.00;99.90;;;;;;4974226;28;20039;-68
2021/12/18 09:15:13;;;;;;;0.70;0.70;;;4.90;99.90;;;;;;4972974;28;20138;-70
2021/12/18 09:17:39;;;;;;;0.68;0.68;;;4.90;99.90;;;;;;4973247;28;20027;-69
2021/12/18 09:20:06;;;;;;;0.00;0.00;;;5.00;99.90;;;;;;4974027;28;20042;-67
2021/12/18 09:22:34;;;;;;;0.80;0.80;;;5.00;99.90;;;;;;4973990;28;20081;-65
2021/12/18 09:25:05;;;;;;;1.60;1.50;;;5.00;99.90;;;;;;4972004;28;20082;-62
2021/12/18 09:27:32;;;;;;;0.43;0.43;;;5.00;99.90;;;;;;4974170;28;20034;-63
2021/12/18 09:29:58;;;;;;;1.00;0.95;;;5.10;99.90;;;;;;4972380;28;20504;-68
2021/12/18 09:32:28;;;;;;;0.10;0.10;;;5.00;99.90;;;;;;4973880;28;20085;-65
2021/12/18 09:34:54;;;;;;;0.00;0.00;;;5.10;99.90;;;;;;4972807;28;20042;-68
2021/12/18 09:37:20;;;;;;;0.10;0.10;;;5.00;99.90;;;;;;4972593;28;20037;-68
2021/12/18 09:39:46;;;;;;;0.30;0.30;;;5.10;99.90;;;;;;4972767;28;20034;-67
2021/12/18 09:42:14;;;;;;;1.88;1.25;;;5.10;99.90;;;;;;4973944;28;20050;-69
2021/12/18 09:44:40;;;;;;;0.80;0.80;;;5.10;99.90;;;;;;4956493;28;20031;-68
2021/12/18 09:47:14;;;;;;;0.68;0.68;;;5.20;99.90;;;;;;5109334;27;20408;-68
2021/12/18 09:49:40;;;;;;;0.00;0.00;;;5.20;99.90;;;;;;5088172;28;20043;-67
2021/12/18 09:52:06;;;;;;;0.80;0.80;;;5.30;99.90;;;;;;5087612;28;20032;-68
2021/12/18 09:54:32;;;;;;;3.50;1.25;;;5.40;99.90;;;;;;5089244;28;20028;-69
2021/12/18 09:56:58;;;;;;;0.65;0.65;;;5.50;99.90;;;;;;5088403;28;20084;-67
2021/12/18 09:59:24;;;;;;;2.17;1.23;;;5.50;99.90;;;;;;5087993;28;20036;-66
2021/12/18 10:01:50;;;;;;;0.35;0.35;;;5.40;99.90;;;;;;5089135;28;20568;-65
2021/12/18 10:04:32;;;;;;;0.25;0.25;;;5.50;99.90;;;;;;5088743;28;20712;-65
2021/12/18 10:07:00;;;;;;;4.32;2.50;;;5.50;99.90;;;;;;5088571;28;20170;-65
2021/12/18 10:09:27;;;;;;;1.60;1.50;;;5.60;99.90;;;;;;5085235;28;20078;-64
2021/12/18 10:11:56;;;;;;;0.00;0.00;;;5.50;99.90;;;;;;5089735;28;20032;-69
2021/12/18 10:14:47;;;;;;;0.05;0.05;;;5.50;99.90;;;;;;5070869;28;20052;-66
2021/12/18 10:17:28;;;;;;;0.20;0.20;;;5.40;99.90;;;;;;5087482;28;20085;-65
2021/12/18 10:20:23;;;;;;;1.08;1.00;;;5.40;99.90;;;;;;5088368;28;20085;-64
2021/12/18 10:22:59;;;;;;;0.20;0.20;;;5.50;99.90;;;;;;5088395;28;20400;-65
2021/12/18 10:25:31;;;;;;;1.27;1.00;;;5.60;99.90;;;;;;5088621;28;20038;-63
2021/12/18 10:28:08;;;;;;;1.33;0.98;;;5.70;99.90;;;;;;5087050;28;20043;-63
2021/12/18 10:30:35;;;;;;;0.10;0.10;;;5.60;99.90;;;;;;5088290;28;20078;-66
2021/12/18 10:33:11;;;;;;;0.98;0.73;;;5.60;99.90;;;;;;5088282;28;20115;-64
2021/12/18 10:35:43;;;;;;;4.90;1.55;;;5.60;99.90;;;;;;5087219;28;20031;-69
2021/12/18 10:38:29;;;;;;;0.95;0.93;;;5.70;99.90;;;;;;5087959;28;20055;-66
2021/12/18 10:40:55;;;;;;;0.20;0.20;;;5.60;99.90;;;;;;5087798;28;20055;-66
2021/12/18 10:43:21;;;;;;;0.88;0.80;;;5.60;99.90;;;;;;5077542;28;20055;-65
2021/12/18 10:45:47;;;;;;;0.10;0.10;;;5.70;99.90;;;;;;5067525;28;20051;-64
2021/12/18 10:48:19;;;;;;;0.10;0.10;;;5.60;99.90;;;;;;5067463;28;20082;-68
2021/12/18 10:50:51;;;;;;;0.17;0.17;;;5.50;99.90;;;;;;5067541;28;20607;-67
2021/12/18 10:53:24;;;;;;;1.55;0.63;;;5.60;99.90;;;;;;5067531;28;20029;-68
2021/12/18 10:55:56;;;;;;;0.85;0.85;;;5.70;99.90;;;;;;5067533;28;20033;-68
2021/12/18 10:58:28;;;;;;;0.85;0.68;;;5.70;99.90;;;;;;5054616;28;20113;-69
2021/12/18 11:01:12;;;;;;;0.73;0.70;;;5.70;99.90;;;;;;5069680;28;20382;-69
2021/12/18 11:03:49;;;;;;;0.17;0.17;;;5.70;99.90;;;;;;5054210;28;20434;-69
2021/12/18 11:06:21;;;;;;;6.68;1.08;;;5.70;99.90;;;;;;5052547;28;20409;-68
2021/12/18 11:09:11;;;;;;;0.30;0.30;;;5.70;99.90;;;;;;5054228;28;20108;-69
2021/12/18 11:14:22;;;;;;;1.48;1.38;;;5.70;99.90;;;;;;5053857;28;20150;-68
2021/12/18 11:17:01;;;;;;;0.43;0.43;;;5.70;99.90;;;;;;5052732;28;20041;-68
2021/12/18 11:19:30;;;;;;;0.20;0.20;;;5.60;99.90;;;;;;5054115;28;20033;-68
2021/12/18 11:22:12;;;;;;;0.10;0.10;;;5.70;99.90;;;;;;5053993;28;20029;-67
2021/12/18 11:25:04;;;;;;;5.13;4.70;;;6.10;99.90;;;;;;5056572;28;20036;-68
2021/12/18 11:27:32;;;;;;;0.65;0.65;;;5.80;99.90;;;;;;5072321;28;20029;-69
2021/12/18 11:30:14;;;;;;;1.90;0.65;;;5.80;99.90;;;;;;5072532;28;20169;-67
2021/12/18 11:32:54;;;;;;;;;;;5.70;99.90;;;;;;5073668;28;20504;-67
2021/12/18 11:35:23;;;;;;;0.20;0.20;;;5.70;99.90;;;;;;5071694;28;19963;-68
2021/12/18 11:38:08;;;;;;;0.10;0.10;;;6.00;99.90;;;;;;5055768;28;20459;-68
2021/12/18 11:40:40;;;;;;;0.52;0.52;;;5.80;99.90;;;;;;5072472;28;20111;-67
2021/12/18 11:43:36;;;;;;;0.73;0.73;;;5.60;99.90;;;;;;5072585;28;20028;-67
2021/12/18 11:46:30;;;;;;;0.10;0.10;;;5.70;99.90;;;;;;5069278;28;20044;-67
2021/12/18 11:49:00;;;;;;;0.10;0.10;;;5.80;99.90;;;;;;5073550;28;20081;-67
2021/12/18 11:51:28;;;;;;;0.10;0.10;;;5.80;99.90;;;;;;5072013;28;20030;-67
2021/12/18 11:53:54;;;;;;;0.45;0.45;;;5.90;99.90;;;;;;5072320;28;20036;-67
2021/12/18 11:56:20;;;;;;;0.10;0.10;;;5.90;99.90;;;;;;5073085;28;20036;-68
2021/12/18 11:58:49;;;;;;;0.63;0.63;;;5.90;99.90;;;;;;5071580;28;20097;-68
2021/12/18 12:01:25;;;;;;;0.47;0.45;;;5.90;99.90;;;;;;5071667;28;20032;-68
2021/12/18 12:03:51;;;;;;;0.10;0.10;;;5.80;99.90;;;;;;5071599;28;20409;-67
2021/12/18 12:06:32;;;;;;;0.28;0.28;;;5.70;99.90;;;;;;5052947;28;20071;-68
2021/12/18 12:09:32;;;;;;;0.00;0.00;;;5.70;99.90;;;;;;5052085;28;20067;-68
2021/12/18 12:12:08;;;;;;;0.00;0.00;;;5.70;99.90;;;;;;5051766;28;20072;-68
2021/12/18 12:14:40;;;;;;;0.10;0.10;;;5.70;99.90;;;;;;5052981;28;20025;-68
2021/12/18 12:17:24;;;;;;;0.20;0.20;;;5.50;99.90;;;;;;5051879;28;20026;-68
2021/12/18 12:19:59;;;;;;;0.28;0.28;;;5.70;99.90;;;;;;5052917;28;20033;-66
2021/12/18 12:22:33;;;;;;;1.48;1.38;;;5.80;99.90;;;;;;5052463;28;20512;-67
2021/12/18 12:25:00;;;;;;;0.68;0.68;;;5.80;99.90;;;;;;5052794;28;20044;-67
2021/12/18 12:27:40;;;;;;;1.35;1.30;;;5.80;99.90;;;;;;5052589;28;20052;-69
2021/12/18 12:30:43;;;;;;;0.00;0.00;;;5.90;99.90;;;;;;5052327;28;20045;-70
2021/12/18 12:33:19;;;;;;;0.65;0.65;;;6.00;99.90;;;;;;5051202;28;20037;-70
2021/12/18 12:36:10;;;;;;;0.30;0.30;;;5.90;99.90;;;;;;5051424;28;20123;-70
2021/12/18 12:39:00;;;;;;;0.73;0.73;;;5.80;99.90;;;;;;5052822;28;20029;-71
2021/12/18 12:41:38;;;;;;;0.00;0.00;;;5.80;99.90;;;;;;5051017;28;20113;-67
2021/12/18 12:44:17;;;;;;;0.38;0.38;;;5.60;99.90;;;;;;5051037;28;20052;-67
2021/12/18 12:46:44;;;;;;;2.85;0.52;;;5.80;99.90;;;;;;5050905;28;20509;-75
2021/12/18 12:49:19;;;;;;;0.10;0.10;;;5.90;99.90;;;;;;5052315;28;20032;-74
2021/12/18 12:51:57;;;;;;;0.00;0.00;;;5.90;99.90;;;;;;5052417;28;20135;-75
2021/12/18 12:54:43;;;;;;;0.32;0.32;;;5.90;99.90;;;;;;5051938;28;20036;-74
2021/12/18 12:57:27;;;;;;;0.55;0.55;;;5.90;99.90;;;;;;5050666;28;20037;-74
2021/12/18 13:00:05;;;;;;;0.50;0.45;;;5.90;99.90;;;;;;5052309;28;20037;-74
2021/12/18 13:02:49;;;;;;;1.08;1.08;;;6.00;99.90;;;;;;5051916;28;20025;-74
2021/12/18 13:05:15;;;;;;;0.10;0.10;;;5.90;99.90;;;;;;5051893;28;20086;-75
2021/12/18 13:07:55;;;;;;;0.10;0.10;;;5.80;99.90;;;;;;5051781;28;20120;-75
2021/12/18 13:10:26;;;;;;;0.00;0.00;;;5.90;99.90;;;;;;5034121;28;20025;-74
2021/12/18 13:12:53;;;;;;;;;;;5.80;99.90;;;;;;5051292;28;20482;-74
2021/12/18 13:15:19;;;;;;;0.65;0.38;;;5.80;99.90;;;;;;5066960;28;19912;-75
2021/12/18 13:17:45;;;;;;;1.33;1.00;;;5.80;99.90;;;;;;5071692;28;20032;-75
2021/12/18 13:20:11;;;;;;;4.75;0.80;;;5.70;99.90;;;;;;5071327;28;20082;-75
2021/12/18 13:22:37;;;;;;;0.30;0.30;;;5.70;99.90;;;;;;5071793;28;20150;-75
2021/12/18 13:25:14;;;;;;;0.20;0.20;;;5.70;99.90;;;;;;5071897;28;20499;-75
2021/12/18 13:28:03;;;;;;;0.10;0.10;;;5.50;99.90;;;;;;5070340;28;20074;-75
2021/12/18 13:30:29;;;;;;;0.13;0.13;;;5.50;99.90;;;;;;5070594;28;20036;-74
2021/12/18 13:33:04;;;;;;;0.63;0.63;;;5.60;99.90;;;;;;5071848;28;20047;-75
2021/12/18 13:35:34;;;;;;;0.10;0.10;;;5.60;99.90;;;;;;5070237;28;20029;-75
2021/12/18 13:38:08;;;;;;;0.45;0.45;;;5.60;99.90;;;;;;5070639;28;20067;-75
2021/12/18 13:40:48;;;;;;;0.20;0.20;;;5.60;99.90;;;;;;5070698;28;20036;-75
2021/12/18 13:43:26;;;;;;;0.17;0.15;;;5.50;99.90;;;;;;5070269;28;20039;-75
2021/12/18 13:46:08;;;;;;;1.13;0.57;;;5.50;99.90;;;;;;5070250;28;20064;-75
2021/12/18 13:48:41;;;;;;;0.35;0.35;;;5.60;99.90;;;;;;5070369;28;20037;-75
2021/12/18 13:51:17;;;;;;;0.20;0.20;;;5.60;99.90;;;;;;5071733;28;20029;-75
2021/12/18 13:53:57;;;;;;;0.52;0.52;;;5.60;99.90;;;;;;5071398;28;20478;-75